Terminal Aerodrome Forecast
Issued by NWS

Home | Current Version | Previous Version | Text Only | Print | Product List | Glossary On
Versions: 1 2 3 4 5 6 7 8 9 10 11 12 13 14 15
000
FTUS46 KHNX 181737
TAFBFL
TAF
KBFL 181737Z 1818/1918 13003KT P6SM SCT120 BKN200
     FM190000 VRB05KT 5SM HZ VCSH BKN050 OVC100
     FM190600 12012G18KT 3SM -RA BR SCT030 OVC050
      TEMPO 1908/1912 18012G20KT 2SM SHRA BR BKN030 OVC050=

USA.gov is the U.S. government's official web portal to all federal, state and local government web resources and services.